This is the latest recevied weather packets stored in our database for station/object N5TDX. If no packets are shown the sender has not sent any weather packets the latest 10 day(s).
| Time | Temp. | Humidity | Pressure | Rain* | Wind** | Luminosity | Snow |
|---|---|---|---|---|---|---|---|
| 1777052988 | 30.56° C | 53% | 1002.5 hPa | 0 mm | - | - | - |
| 1777052684 | 30° C | 56% | 1002.7 hPa | 0 mm | - | - | - |
| 1777052383 | 30° C | 55% | 1002.9 hPa | 0 mm | - | - | - |
| 1777052081 | 30° C | 56% | 1002.8 hPa | 0 mm | - | - | - |
| 1777051778 | 30° C | 56% | 1002.7 hPa | 0 mm | - | - | - |
| 1777051474 | 29.44° C | 57% | 1002.9 hPa | 0 mm | - | - | - |
| 1777051170 | 30° C | 57% | 1003.1 hPa | 0 mm | - | - | - |
| 1777050866 | 30.56° C | 54% | 1002.9 hPa | 0 mm | - | - | - |
| 1777050561 | 30° C | 58% | 1002.9 hPa | 0 mm | - | - | - |
| 1777050261 | 30° C | 58% | 1002.9 hPa | 0 mm | - | - | - |
| 1777049956 | 28.89° C | 60% | 1002.8 hPa | 0 mm | - | - | - |
| 1777049650 | 28.89° C | 60% | 1002.8 hPa | 0 mm | - | - | - |
| 1777049349 | 28.33° C | 61% | 1002.9 hPa | 0 mm | - | - | - |
| 1777049045 | 28.33° C | 62% | 1003 hPa | 0 mm | - | - | - |
| 1777048741 | 28.33° C | 63% | 1002.9 hPa | 0 mm | - | - | - |
| 1777048441 | 27.78° C | 66% | 1002.9 hPa | 0 mm | - | - | - |
| 1777048140 | 27.78° C | 64% | 1003 hPa | 0 mm | - | - | - |
| 1777047836 | 27.78° C | 64% | 1003.1 hPa | 0 mm | - | - | - |
| 1777047532 | 27.78° C | 65% | 1003 hPa | 0 mm | - | - | - |
| 1777047227 | 27.78° C | 66% | 1002.9 hPa | 0 mm | - | - | - |
| 1777046924 | 27.22° C | 69% | 1003 hPa | 0 mm | - | - | - |
| 1777046621 | 27.22° C | 69% | 1002.9 hPa | 0 mm | - | - | - |
| 1777046316 | 27.22° C | 69% | 1003 hPa | 0 mm | - | - | - |
| 1777046012 | 26.67° C | 69% | 1002.9 hPa | 0 mm | - | - | - |
| 1777045709 | 27.22° C | 70% | 1003 hPa | 0 mm | - | - | - |
* Rain latest hour (hover to see other rain measurements)
** Current wind speed in m/s (hover to see current wind gust speed)